Time;durP1;ratioP1;P1;durP2;ratioP2;P2;SDS_P1;SDS_P2;PMS_P1;PMS_P2;Temp;Humidity;BMP_temperature;BMP_pressure;BME280_temperature;BME280_humidity;BME280_pressure;Samples;Min_cycle;Max_cycle;Signal;HPM_P1;HPM_P2
2021/04/02 00:00:42;;;;;;;0.90;0.70;;;9.40;64.30;;;;;;5013006;28;20014;-74
2021/04/02 00:03:18;;;;;;;2.92;1.10;;;9.40;64.50;;;;;;5012455;28;20033;-74
2021/04/02 00:05:44;;;;;;;2.30;0.80;;;9.30;64.60;;;;;;5012520;28;20080;-75
2021/04/02 00:08:10;;;;;;;3.50;1.00;;;9.30;64.60;;;;;;5012795;28;20037;-74
2021/04/02 00:10:44;;;;;;;2.70;1.17;;;9.30;64.60;;;;;;5012456;28;20025;-75
2021/04/02 00:13:14;;;;;;;0.82;0.70;;;9.30;64.80;;;;;;4995569;28;20057;-74
2021/04/02 00:15:40;;;;;;;2.72;1.02;;;9.20;64.90;;;;;;5012673;28;20386;-75
2021/04/02 00:18:08;;;;;;;2.85;1.10;;;9.10;65.10;;;;;;5011805;28;20064;-75
2021/04/02 00:20:34;;;;;;;1.42;0.98;;;9.10;65.30;;;;;;4995156;28;20359;-75
2021/04/02 00:23:00;;;;;;;4.13;1.52;;;9.00;65.40;;;;;;5012196;28;20054;-75
2021/04/02 00:25:26;;;;;;;1.20;0.70;;;8.90;65.60;;;;;;5012461;28;20029;-73
2021/04/02 00:27:52;;;;;;;2.78;1.10;;;8.80;65.70;;;;;;5012084;28;20025;-74
2021/04/02 00:30:23;;;;;;;1.67;0.93;;;8.80;65.80;;;;;;5012470;28;20029;-73
2021/04/02 00:32:49;;;;;;;0.80;0.80;;;8.70;66.00;;;;;;5011827;28;20037;-74
2021/04/02 00:35:15;;;;;;;5.85;1.00;;;8.60;66.20;;;;;;4994878;28;20022;-75
2021/04/02 00:37:42;;;;;;;1.42;0.98;;;8.50;66.40;;;;;;5011938;28;20417;-74
2021/04/02 00:40:18;;;;;;;1.13;0.80;;;8.40;66.70;;;;;;5011739;28;20026;-74
2021/04/02 00:42:44;;;;;;;4.70;1.25;;;8.40;66.80;;;;;;4994660;28;20109;-75
2021/04/02 00:45:11;;;;;;;2.50;0.90;;;8.30;66.90;;;;;;4993820;28;20389;-75
2021/04/02 00:47:37;;;;;;;3.67;0.80;;;8.30;66.90;;;;;;5012174;28;20021;-75
2021/04/02 00:50:08;;;;;;;1.88;1.15;;;8.30;66.80;;;;;;5011557;28;20048;-74
2021/04/02 00:52:34;;;;;;;;;;;8.30;66.70;;;;;;4994537;28;20033;-74
2021/04/02 00:54:59;;;;;;;2.30;1.00;;;8.20;66.50;;;;;;5011354;28;19963;-75
2021/04/02 00:57:25;;;;;;;2.63;1.00;;;8.30;66.60;;;;;;4994251;28;20025;-75
2021/04/02 00:59:50;;;;;;;1.70;0.90;;;8.20;66.70;;;;;;5011345;28;20147;-75
2021/04/02 01:02:16;;;;;;;1.40;0.75;;;8.20;66.70;;;;;;5011959;28;20110;-75
2021/04/02 01:04:42;;;;;;;1.75;0.80;;;8.20;67.00;;;;;;5011846;28;20050;-75
2021/04/02 01:07:07;;;;;;;2.60;1.02;;;8.10;67.00;;;;;;5011291;28;20391;-75
2021/04/02 01:09:33;;;;;;;0.82;0.80;;;8.10;67.20;;;;;;5011557;28;20037;-74
2021/04/02 01:11:58;;;;;;;1.15;0.90;;;8.10;67.30;;;;;;5010869;28;20602;-75
2021/04/02 01:14:24;;;;;;;2.60;0.80;;;8.00;67.30;;;;;;5011993;28;20369;-75
2021/04/02 01:16:50;;;;;;;1.70;0.80;;;8.00;67.30;;;;;;4993405;28;20117;-74
2021/04/02 01:19:24;;;;;;;0.47;0.47;;;8.00;67.40;;;;;;4994337;28;20029;-74
2021/04/02 01:21:57;;;;;;;1.80;0.90;;;8.00;67.40;;;;;;5010598;28;20136;-74
2021/04/02 01:24:22;;;;;;;1.30;0.68;;;7.90;68.10;;;;;;5011549;28;20462;-74
2021/04/02 01:27:10;;;;;;;1.35;0.70;;;7.90;67.60;;;;;;4993758;28;20041;-75
2021/04/02 01:29:47;;;;;;;3.70;0.90;;;7.90;67.70;;;;;;5011346;28;20124;-74
2021/04/02 01:32:21;;;;;;;2.33;0.98;;;7.80;67.60;;;;;;5011076;28;20026;-75
2021/04/02 01:34:49;;;;;;;2.08;0.80;;;7.80;67.70;;;;;;5011388;28;20060;-75
2021/04/02 01:37:26;;;;;;;6.78;1.20;;;7.80;67.80;;;;;;5010638;28;20022;-74
2021/04/02 01:39:55;;;;;;;1.27;0.50;;;7.80;67.80;;;;;;5010755;28;20022;-74
2021/04/02 01:42:23;;;;;;;0.88;0.70;;;7.80;67.70;;;;;;5011355;28;20033;-74
2021/04/02 01:44:51;;;;;;;1.23;0.70;;;7.80;68.40;;;;;;5011411;28;20121;-74
2021/04/02 01:47:19;;;;;;;0.70;0.70;;;7.80;67.80;;;;;;4993413;28;20080;-75
2021/04/02 01:49:45;;;;;;;3.22;1.23;;;7.70;67.90;;;;;;5011386;28;20154;-75
2021/04/02 01:52:12;;;;;;;1.95;1.63;;;7.80;68.00;;;;;;5010242;28;20329;-75
2021/04/02 01:54:38;;;;;;;0.52;0.50;;;7.70;68.00;;;;;;5010863;28;20512;-74
2021/04/02 01:57:06;;;;;;;3.00;0.75;;;7.70;68.00;;;;;;4992735;28;20072;-74
2021/04/02 01:59:34;;;;;;;3.45;0.75;;;7.70;68.10;;;;;;5011359;28;20121;-74
2021/04/02 02:02:02;;;;;;;3.25;1.60;;;7.70;68.10;;;;;;5010536;28;20108;-75
2021/04/02 02:04:29;;;;;;;1.05;0.90;;;7.70;68.10;;;;;;5011345;28;20037;-75
2021/04/02 02:06:55;;;;;;;3.33;0.90;;;7.70;68.20;;;;;;5010419;28;20474;-74
2021/04/02 02:09:26;;;;;;;1.50;0.90;;;7.70;68.20;;;;;;4993381;28;20458;-74
2021/04/02 02:11:56;;;;;;;1.77;0.70;;;7.60;68.20;;;;;;5011186;28;20030;-74
2021/04/02 02:14:23;;;;;;;0.65;0.60;;;7.60;68.40;;;;;;4993304;28;20061;-74
2021/04/02 02:16:53;;;;;;;1.00;0.52;;;7.60;68.50;;;;;;5011040;28;20040;-74
2021/04/02 02:19:23;;;;;;;4.80;0.70;;;7.60;68.40;;;;;;5010936;28;20099;-74
2021/04/02 02:21:51;;;;;;;2.60;1.02;;;7.60;68.60;;;;;;5011122;28;20060;-74
2021/04/02 02:24:18;;;;;;;1.20;0.70;;;7.60;68.60;;;;;;5010383;28;20021;-74
2021/04/02 02:26:44;;;;;;;1.27;0.63;;;7.60;68.70;;;;;;4993257;28;20065;-74
2021/04/02 02:29:11;;;;;;;2.67;0.82;;;7.60;68.60;;;;;;5010082;28;20501;-75
2021/04/02 02:31:38;;;;;;;1.98;0.70;;;7.60;68.80;;;;;;5010967;28;20026;-75
2021/04/02 02:34:05;;;;;;;2.55;1.08;;;7.60;68.80;;;;;;5010210;28;20034;-75
2021/04/02 02:36:32;;;;;;;0.82;0.68;;;7.60;68.80;;;;;;4993231;28;20044;-74
2021/04/02 02:38:58;;;;;;;2.05;0.98;;;7.60;68.80;;;;;;4998111;28;20134;-75
2021/04/02 02:41:28;;;;;;;1.00;0.88;;;7.60;68.90;;;;;;4971865;28;20039;-75
2021/04/02 02:43:55;;;;;;;2.40;0.65;;;7.60;69.00;;;;;;4971814;28;20463;-75
2021/04/02 02:46:26;;;;;;;2.85;0.77;;;7.50;69.10;;;;;;4972166;28;20034;-75
2021/04/02 02:48:57;;;;;;;0.93;0.60;;;7.60;69.20;;;;;;4972615;28;20018;-75
2021/04/02 02:51:26;;;;;;;0.65;0.65;;;7.50;69.10;;;;;;4975408;28;20058;-75
2021/04/02 02:53:52;;;;;;;1.38;0.57;;;7.50;69.10;;;;;;4975048;28;20093;-74
2021/04/02 02:56:19;;;;;;;2.08;0.70;;;7.50;69.20;;;;;;4973062;28;20297;-74
2021/04/02 02:58:48;;;;;;;1.45;0.77;;;7.50;69.20;;;;;;4975144;28;20022;-74
2021/04/02 03:01:15;;;;;;;3.03;1.48;;;7.50;69.50;;;;;;4974226;28;20039;-75
2021/04/02 03:03:42;;;;;;;0.93;0.60;;;7.50;69.50;;;;;;4975278;28;20121;-75
2021/04/02 03:06:09;;;;;;;0.75;0.70;;;7.50;69.60;;;;;;4974168;28;20027;-75
2021/04/02 03:08:49;;;;;;;0.68;0.68;;;7.50;69.60;;;;;;4974913;28;20031;-74
2021/04/02 03:11:16;;;;;;;0.95;0.70;;;7.50;69.60;;;;;;4974035;28;20035;-74
2021/04/02 03:13:44;;;;;;;1.60;0.80;;;7.50;69.80;;;;;;4974622;28;20031;-74
2021/04/02 03:16:11;;;;;;;0.60;0.60;;;7.50;69.90;;;;;;4974254;28;20031;-76
2021/04/02 03:18:38;;;;;;;3.13;0.70;;;7.40;69.90;;;;;;4974563;28;20082;-74
2021/04/02 03:21:06;;;;;;;0.80;0.75;;;7.40;69.90;;;;;;4973875;28;20106;-74
2021/04/02 03:23:33;;;;;;;1.60;0.88;;;7.40;70.10;;;;;;4974637;28;20110;-75
2021/04/02 03:25:59;;;;;;;2.80;1.08;;;7.40;70.20;;;;;;4973800;28;20019;-75
2021/04/02 03:28:26;;;;;;;1.08;0.98;;;7.40;70.30;;;;;;4974725;28;20404;-75
2021/04/02 03:30:52;;;;;;;0.80;0.80;;;7.40;70.40;;;;;;4974679;28;20042;-75
2021/04/02 03:33:21;;;;;;;1.08;0.60;;;7.40;70.60;;;;;;4974131;28;20031;-74
2021/04/02 03:35:48;;;;;;;1.45;0.80;;;7.40;70.60;;;;;;4973275;28;20033;-74
2021/04/02 03:38:16;;;;;;;0.98;0.80;;;7.40;70.60;;;;;;4972612;28;20027;-74
2021/04/02 03:40:44;;;;;;;1.40;0.90;;;7.50;70.70;;;;;;4974555;28;20057;-74
2021/04/02 03:43:10;;;;;;;4.00;1.20;;;7.50;70.70;;;;;;4973852;28;20027;-75
2021/04/02 03:45:39;;;;;;;1.73;0.80;;;7.50;70.70;;;;;;4973988;28;20467;-74
2021/04/02 03:48:07;;;;;;;1.75;0.90;;;7.50;70.80;;;;;;4973734;28;20023;-75
2021/04/02 03:50:36;;;;;;;1.90;1.17;;;7.40;70.90;;;;;;4974476;28;20023;-74
2021/04/02 03:53:04;;;;;;;2.78;1.15;;;7.40;71.00;;;;;;4973306;28;20031;-75
2021/04/02 03:55:31;;;;;;;2.17;0.93;;;7.50;71.20;;;;;;4974330;28;20030;-75
2021/04/02 03:57:59;;;;;;;1.38;0.82;;;7.50;71.20;;;;;;4973991;28;20122;-75
2021/04/02 04:00:29;;;;;;;1.58;1.35;;;7.40;71.10;;;;;;4972604;28;20376;-75
2021/04/02 04:02:56;;;;;;;2.47;0.95;;;7.40;71.30;;;;;;4972842;28;20039;-75
2021/04/02 04:05:24;;;;;;;2.92;1.10;;;7.50;71.40;;;;;;4973520;28;20101;-74
2021/04/02 04:07:51;;;;;;;2.55;0.93;;;7.40;71.60;;;;;;4973761;28;20171;-72
2021/04/02 04:10:18;;;;;;;3.35;0.95;;;7.50;71.60;;;;;;4973385;28;20034;-71
2021/04/02 04:12:48;;;;;;;2.17;0.93;;;7.50;71.80;;;;;;4973957;28;20038;-74
2021/04/02 04:15:15;;;;;;;2.38;1.42;;;7.50;71.70;;;;;;4973029;28;20526;-74
2021/04/02 04:17:43;;;;;;;3.50;1.50;;;7.50;71.80;;;;;;4982891;28;20153;-75
2021/04/02 04:20:11;;;;;;;4.82;1.15;;;7.50;71.80;;;;;;4974404;28;20023;-75
2021/04/02 04:22:40;;;;;;;1.67;0.95;;;7.50;71.90;;;;;;4959736;28;20042;-74
2021/04/02 04:25:08;;;;;;;3.70;1.27;;;7.50;72.00;;;;;;4989202;28;20118;-73
2021/04/02 04:27:38;;;;;;;5.82;1.30;;;7.50;72.20;;;;;;4992622;28;20031;-74
2021/04/02 04:30:08;;;;;;;4.10;1.25;;;7.50;72.10;;;;;;4991822;28;20061;-74
2021/04/02 04:32:35;;;;;;;2.40;1.13;;;7.50;72.40;;;;;;4992174;28;20081;-74
2021/04/02 04:35:01;;;;;;;4.07;1.20;;;7.50;72.30;;;;;;4992822;28;20531;-73
2021/04/02 04:37:28;;;;;;;0.80;0.80;;;7.50;72.40;;;;;;4988986;28;20029;-75
2021/04/02 04:39:55;;;;;;;4.35;0.90;;;7.50;72.30;;;;;;4989479;28;20105;-74
2021/04/02 04:42:22;;;;;;;3.17;1.20;;;7.50;72.30;;;;;;4991990;28;20101;-74
2021/04/02 04:44:51;;;;;;;1.35;0.90;;;7.50;72.50;;;;;;4992629;28;20026;-74
2021/04/02 04:47:17;;;;;;;5.25;1.33;;;7.50;72.40;;;;;;4991929;28;20458;-73
2021/04/02 04:49:44;;;;;;;3.08;1.25;;;7.50;72.40;;;;;;4992317;28;20026;-74
2021/04/02 04:52:13;;;;;;;3.42;1.20;;;7.50;72.40;;;;;;4991582;28;20036;-74
2021/04/02 04:54:41;;;;;;;1.92;1.05;;;7.50;72.40;;;;;;4992240;28;20022;-75
2021/04/02 04:57:09;;;;;;;1.92;1.35;;;7.50;72.40;;;;;;4989030;28;20469;-80
2021/04/02 04:59:38;;;;;;;0.95;0.80;;;7.50;72.30;;;;;;4956884;28;20097;-80
2021/04/02 05:02:05;;;;;;;1.98;1.20;;;7.50;72.30;;;;;;4972614;28;20109;-79
2021/04/02 05:04:32;;;;;;;3.65;1.27;;;7.50;72.20;;;;;;4990078;28;20050;-80
2021/04/02 05:07:01;;;;;;;0.77;0.77;;;7.50;72.10;;;;;;4972841;28;20022;-81
2021/04/02 05:09:28;;;;;;;2.03;0.88;;;7.50;72.10;;;;;;4972006;28;20058;-83
2021/04/02 05:11:55;;;;;;;2.00;0.85;;;7.50;72.00;;;;;;4990056;28;20030;-75
2021/04/02 05:14:22;;;;;;;1.70;0.90;;;7.60;72.00;;;;;;4991319;28;20026;-73
2021/04/02 05:16:49;;;;;;;1.80;0.80;;;7.60;72.00;;;;;;4991654;28;20030;-74
2021/04/02 05:19:18;;;;;;;2.15;1.20;;;7.60;71.90;;;;;;4991289;28;20053;-74
2021/04/02 05:21:45;;;;;;;2.80;0.95;;;7.60;71.80;;;;;;4991803;28;20086;-75
2021/04/02 05:24:12;;;;;;;4.40;1.17;;;7.60;71.80;;;;;;4991473;28;20057;-74
2021/04/02 05:26:39;;;;;;;2.45;1.10;;;7.60;71.80;;;;;;4991845;28;20022;-75
2021/04/02 05:29:05;;;;;;;1.83;1.00;;;7.60;71.80;;;;;;4991814;28;20082;-75
2021/04/02 05:31:32;;;;;;;2.38;1.20;;;7.50;71.70;;;;;;4990906;28;20034;-74
2021/04/02 05:33:58;;;;;;;2.40;1.20;;;7.60;71.90;;;;;;4991804;28;20375;-74
2021/04/02 05:36:23;;;;;;;2.85;1.20;;;7.50;71.90;;;;;;4991093;28;20416;-75
2021/04/02 05:38:49;;;;;;;2.33;1.20;;;7.60;71.90;;;;;;4992158;28;20120;-74
2021/04/02 05:41:19;;;;;;;2.22;1.00;;;7.60;71.70;;;;;;4991133;28;20488;-74
2021/04/02 05:44:01;;;;;;;1.85;0.98;;;7.60;71.70;;;;;;4991627;28;20029;-75
2021/04/02 05:46:29;;;;;;;4.15;1.00;;;7.60;71.60;;;;;;4973718;28;20033;-74
2021/04/02 05:49:03;;;;;;;1.58;1.10;;;7.60;71.70;;;;;;4991843;28;20038;-75
2021/04/02 05:51:29;;;;;;;3.53;1.42;;;7.60;71.70;;;;;;4973912;28;20030;-74
2021/04/02 05:53:56;;;;;;;6.95;1.20;;;7.60;71.70;;;;;;4992461;28;20375;-74
2021/04/02 05:56:22;;;;;;;2.78;1.10;;;7.60;71.70;;;;;;4991223;28;20109;-74
2021/04/02 05:58:50;;;;;;;6.53;1.50;;;7.60;71.80;;;;;;4991446;28;20065;-75
2021/04/02 06:01:17;;;;;;;2.83;1.20;;;7.60;71.70;;;;;;4973454;28;20355;-75
2021/04/02 06:03:42;;;;;;;1.70;0.80;;;7.60;71.70;;;;;;4991700;28;20037;-74
2021/04/02 06:06:12;;;;;;;2.85;1.13;;;7.60;71.60;;;;;;4991514;28;20022;-75
2021/04/02 06:08:47;;;;;;;3.65;1.45;;;7.60;72.20;;;;;;4991369;28;20471;-74
2021/04/02 06:11:14;;;;;;;3.38;0.90;;;7.60;71.60;;;;;;4990682;28;20042;-74
2021/04/02 06:13:40;;;;;;;2.70;0.90;;;7.60;71.60;;;;;;4991859;28;20093;-75
2021/04/02 06:16:07;;;;;;;4.35;0.90;;;7.60;71.70;;;;;;4990996;28;20324;-75
2021/04/02 06:18:41;;;;;;;1.95;1.02;;;7.60;71.70;;;;;;4973014;28;20049;-75
2021/04/02 06:21:08;;;;;;;2.25;0.90;;;7.60;71.60;;;;;;4991274;28;20037;-74
2021/04/02 06:23:37;;;;;;;1.48;0.88;;;7.60;71.60;;;;;;4993030;28;20025;-75
2021/04/02 06:26:09;;;;;;;3.42;0.95;;;7.60;71.60;;;;;;4995214;28;20018;-75
2021/04/02 06:28:37;;;;;;;2.83;1.20;;;7.70;71.50;;;;;;4994490;28;20026;-76
2021/04/02 06:31:14;;;;;;;2.80;0.93;;;7.70;71.30;;;;;;4994766;28;20041;-75
2021/04/02 06:33:53;;;;;;;2.85;1.00;;;7.70;71.30;;;;;;4995584;28;20125;-74
2021/04/02 06:36:24;;;;;;;1.65;0.70;;;7.70;71.40;;;;;;4994571;28;20021;-74
2021/04/02 06:38:54;;;;;;;1.38;0.70;;;7.70;71.30;;;;;;4995085;28;20023;-75
2021/04/02 06:41:20;;;;;;;3.75;1.10;;;7.70;71.20;;;;;;4994156;28;20134;-75
2021/04/02 06:43:51;;;;;;;4.03;1.02;;;7.70;71.30;;;;;;4994544;28;20108;-76
2021/04/02 06:46:29;;;;;;;3.70;2.15;;;7.80;71.30;;;;;;4994360;28;20462;-75
2021/04/02 06:49:07;;;;;;;1.30;0.90;;;7.80;71.20;;;;;;4994936;28;20112;-74
2021/04/02 06:51:36;;;;;;;1.27;0.60;;;7.80;71.00;;;;;;4994392;28;20073;-75
2021/04/02 06:54:03;;;;;;;2.17;0.93;;;7.80;71.00;;;;;;4994726;28;20496;-75
2021/04/02 06:56:30;;;;;;;1.92;0.85;;;7.80;71.00;;;;;;4994198;28;20019;-75
2021/04/02 06:59:01;;;;;;;0.73;0.50;;;7.80;70.90;;;;;;4994584;28;20092;-75
2021/04/02 07:01:32;;;;;;;2.33;0.98;;;7.90;71.00;;;;;;4976748;28;20034;-75
2021/04/02 07:03:59;;;;;;;1.80;0.80;;;7.90;71.00;;;;;;4994533;28;20022;-75
2021/04/02 07:06:26;;;;;;;2.97;0.90;;;7.90;71.00;;;;;;4993759;28;20092;-75
2021/04/02 07:08:52;;;;;;;1.58;0.70;;;7.90;70.90;;;;;;4994212;28;20078;-75
2021/04/02 07:11:19;;;;;;;2.47;0.82;;;7.90;70.80;;;;;;4993709;28;20049;-74
2021/04/02 07:13:52;;;;;;;1.58;0.80;;;7.90;70.80;;;;;;4994371;28;20031;-75
2021/04/02 07:16:20;;;;;;;2.00;0.88;;;7.90;70.70;;;;;;4993560;28;20018;-74
2021/04/02 07:18:46;;;;;;;1.30;0.82;;;8.00;70.70;;;;;;4994277;28;20160;-75
2021/04/02 07:21:13;;;;;;;1.30;0.90;;;8.00;70.60;;;;;;4992713;28;20078;-75
2021/04/02 07:23:40;;;;;;;1.80;1.00;;;8.00;70.50;;;;;;4993853;28;20033;-75
2021/04/02 07:26:10;;;;;;;0.80;0.70;;;8.00;70.50;;;;;;4993998;28;20121;-75
2021/04/02 07:28:40;;;;;;;4.43;0.90;;;8.10;70.50;;;;;;4993803;28;20023;-75
2021/04/02 07:31:06;;;;;;;0.77;0.70;;;8.10;70.30;;;;;;4993765;28;20443;-75
2021/04/02 07:33:33;;;;;;;3.10;1.25;;;8.20;70.10;;;;;;4991777;28;20023;-75
2021/04/02 07:36:04;;;;;;;2.55;1.40;;;8.20;69.90;;;;;;4993263;28;20026;-74
2021/04/02 07:38:32;;;;;;;2.72;0.98;;;8.30;69.60;;;;;;4993402;28;20029;-74
2021/04/02 07:41:06;;;;;;;2.78;0.80;;;8.20;70.20;;;;;;4993483;28;20375;-74
2021/04/02 07:43:33;;;;;;;2.33;0.88;;;8.30;69.60;;;;;;4993036;28;20027;-74
2021/04/02 07:46:01;;;;;;;0.75;0.73;;;8.30;69.50;;;;;;4993944;28;20068;-75
2021/04/02 07:48:27;;;;;;;1.00;0.82;;;8.30;69.40;;;;;;4992851;28;20378;-74
2021/04/02 07:51:00;;;;;;;2.90;0.95;;;8.30;69.30;;;;;;4992262;28;20431;-75
2021/04/02 07:53:26;;;;;;;1.35;0.70;;;8.30;69.10;;;;;;4993169;28;20030;-74
2021/04/02 07:56:00;;;;;;;2.10;0.90;;;8.40;69.00;;;;;;4976041;28;20080;-75
2021/04/02 07:58:28;;;;;;;1.75;0.60;;;8.40;68.80;;;;;;4993137;28;20026;-75
2021/04/02 08:00:58;;;;;;;2.20;1.00;;;8.50;68.60;;;;;;4993447;28;20023;-75
2021/04/02 08:03:27;;;;;;;0.83;0.70;;;8.60;68.30;;;;;;4992808;28;20154;-73
2021/04/02 08:06:08;;;;;;;1.38;0.80;;;8.70;67.90;;;;;;4993507;28;20518;-74
2021/04/02 08:08:46;;;;;;;0.80;0.80;;;8.90;67.40;;;;;;4992725;28;20030;-75
2021/04/02 08:11:23;;;;;;;6.60;0.85;;;9.10;67.00;;;;;;4993332;28;20081;-75
2021/04/02 08:13:50;;;;;;;3.80;0.93;;;9.30;66.60;;;;;;4993437;28;20064;-75
2021/04/02 08:16:54;;;;;;;2.22;0.82;;;9.40;66.10;;;;;;4993147;28;20113;-75
2021/04/02 08:19:35;;;;;;;0.65;0.60;;;9.60;65.40;;;;;;4992806;28;20329;-74
2021/04/02 08:22:03;;;;;;;1.45;0.57;;;9.70;65.40;;;;;;4992366;28;20054;-75
2021/04/02 08:24:33;;;;;;;0.70;0.70;;;9.70;65.10;;;;;;4992315;28;20034;-74
2021/04/02 08:26:59;;;;;;;1.05;0.47;;;9.80;64.80;;;;;;4992700;28;20034;-75
2021/04/02 08:29:27;;;;;;;4.20;0.90;;;9.90;64.70;;;;;;4992440;28;20415;-74
2021/04/02 08:32:00;;;;;;;0.82;0.65;;;10.00;64.70;;;;;;4993113;28;20031;-74
2021/04/02 08:34:28;;;;;;;1.13;0.82;;;10.00;64.20;;;;;;4992094;28;20035;-74
2021/04/02 08:36:59;;;;;;;1.75;1.42;;;10.00;64.20;;;;;;4992786;28;20038;-74
2021/04/02 08:39:26;;;;;;;2.38;0.90;;;10.00;64.00;;;;;;4992180;28;20049;-74
2021/04/02 08:42:06;;;;;;;2.58;0.85;;;10.00;63.90;;;;;;4992793;28;20093;-73
2021/04/02 08:44:32;;;;;;;1.27;0.90;;;10.00;63.60;;;;;;4991747;28;20019;-74
2021/04/02 08:46:59;;;;;;;2.08;1.02;;;10.00;63.10;;;;;;4992584;28;20471;-75
2021/04/02 08:49:40;;;;;;;3.33;0.95;;;10.00;63.30;;;;;;4991832;28;20046;-74
2021/04/02 08:52:14;;;;;;;3.33;1.13;;;10.00;63.10;;;;;;4992416;28;20026;-74
2021/04/02 08:54:41;;;;;;;3.88;0.75;;;10.20;62.90;;;;;;4991662;28;20022;-76
2021/04/02 08:57:09;;;;;;;3.55;0.70;;;10.20;62.70;;;;;;4992486;28;20026;-76
2021/04/02 08:59:38;;;;;;;2.05;0.70;;;10.30;62.40;;;;;;4991535;28;20034;-74
2021/04/02 09:02:04;;;;;;;2.30;1.27;;;10.40;62.10;;;;;;4991932;28;20451;-75
2021/04/02 09:04:31;;;;;;;2.90;1.10;;;10.50;62.00;;;;;;4991216;28;20113;-74
2021/04/02 09:06:56;;;;;;;1.38;0.93;;;10.60;61.70;;;;;;4991902;28;20443;-76
2021/04/02 09:09:26;;;;;;;4.15;1.00;;;10.70;61.60;;;;;;4992253;28;20033;-74
2021/04/02 09:11:55;;;;;;;1.58;0.80;;;10.70;61.50;;;;;;4991789;28;20394;-75
2021/04/02 09:14:26;;;;;;;3.03;0.77;;;10.70;61.30;;;;;;4992041;28;20030;-75
2021/04/02 09:16:56;;;;;;;1.73;0.90;;;10.70;61.00;;;;;;4992120;28;20026;-74
2021/04/02 09:19:23;;;;;;;2.95;0.80;;;10.60;61.00;;;;;;4992208;28;20085;-75
2021/04/02 09:21:51;;;;;;;1.92;0.90;;;10.50;61.20;;;;;;4990936;28;20411;-75
2021/04/02 09:24:17;;;;;;;5.70;1.38;;;10.40;61.30;;;;;;4992129;28;20022;-75
2021/04/02 09:26:43;;;;;;;1.77;0.90;;;10.30;61.30;;;;;;4991439;28;20525;-76
2021/04/02 09:29:10;;;;;;;3.10;1.25;;;10.30;61.20;;;;;;4992373;28;20041;-74
2021/04/02 09:31:37;;;;;;;1.70;0.90;;;10.30;61.00;;;;;;4991367;28;20033;-75
2021/04/02 09:34:05;;;;;;;2.80;0.90;;;10.30;61.00;;;;;;4992009;28;20192;-74
2021/04/02 09:36:34;;;;;;;4.75;1.40;;;10.20;60.80;;;;;;4973583;28;20054;-74
2021/04/02 09:39:14;;;;;;;1.58;0.90;;;10.30;60.80;;;;;;4991837;28;20073;-75
2021/04/02 09:41:43;;;;;;;1.27;1.07;;;10.40;60.50;;;;;;4990979;28;20045;-75
2021/04/02 09:44:12;;;;;;;2.03;1.10;;;10.40;60.50;;;;;;4974287;28;20261;-75
2021/04/02 09:46:51;;;;;;;2.90;1.50;;;10.50;60.20;;;;;;4991064;28;20430;-74
2021/04/02 09:49:22;;;;;;;5.05;1.65;;;10.60;60.00;;;;;;4991943;28;20026;-74
2021/04/02 09:51:57;;;;;;;3.05;0.85;;;10.60;59.90;;;;;;4990961;28;20483;-74
2021/04/02 09:54:25;;;;;;;3.45;1.30;;;10.60;59.70;;;;;;4991610;28;20030;-75
2021/04/02 09:56:52;;;;;;;3.78;1.23;;;10.70;59.70;;;;;;4991229;28;20085;-75
2021/04/02 09:59:17;;;;;;;7.18;1.30;;;10.80;59.60;;;;;;4997515;28;20394;-74
2021/04/02 10:01:44;;;;;;;2.47;1.17;;;10.90;59.30;;;;;;4997748;28;20030;-75
2021/04/02 10:04:10;;;;;;;3.38;1.20;;;11.00;59.20;;;;;;4997958;28;20533;-74
2021/04/02 10:06:37;;;;;;;2.22;1.10;;;11.00;59.10;;;;;;4997653;28;20109;-75
2021/04/02 10:09:07;;;;;;;2.88;1.27;;;11.00;58.70;;;;;;4980474;28;20022;-74
2021/04/02 10:11:34;;;;;;;3.00;1.35;;;10.90;58.30;;;;;;4979923;28;20113;-74
2021/04/02 10:14:00;;;;;;;1.60;1.10;;;10.80;58.50;;;;;;4997971;28;20117;-74
2021/04/02 10:16:25;;;;;;;1.77;0.90;;;10.80;58.60;;;;;;4980436;28;20109;-75
2021/04/02 10:18:51;;;;;;;1.63;1.00;;;10.80;58.40;;;;;;4997574;28;20451;-75
2021/04/02 10:21:19;;;;;;;1.25;1.08;;;10.80;58.10;;;;;;4997517;28;20031;-74
2021/04/02 10:23:45;;;;;;;2.45;1.10;;;10.70;58.10;;;;;;4997330;28;20049;-75
2021/04/02 10:26:11;;;;;;;1.42;1.25;;;10.80;58.20;;;;;;4998129;28;20031;-75
2021/04/02 10:28:37;;;;;;;1.35;0.90;;;10.80;57.70;;;;;;4997432;28;20442;-75
2021/04/02 10:31:03;;;;;;;1.95;0.90;;;10.70;57.60;;;;;;4997980;28;20118;-75
2021/04/02 10:33:29;;;;;;;2.38;1.13;;;10.70;57.70;;;;;;4998293;28;20082;-75
2021/04/02 10:35:55;;;;;;;2.58;1.05;;;10.90;57.70;;;;;;4979950;28;20404;-75
2021/04/02 10:38:21;;;;;;;1.05;0.90;;;11.10;57.50;;;;;;4998533;28;20025;-75
2021/04/02 10:40:47;;;;;;;2.47;1.00;;;11.30;57.10;;;;;;4997559;28;20049;-75
2021/04/02 10:43:13;;;;;;;4.63;1.10;;;11.40;56.60;;;;;;4980339;28;20064;-75
2021/04/02 10:45:40;;;;;;;4.88;1.33;;;11.50;56.40;;;;;;4997153;28;20053;-75
2021/04/02 10:48:06;;;;;;;7.50;1.10;;;11.50;56.20;;;;;;4997895;28;20034;-74
2021/04/02 10:50:32;;;;;;;2.20;0.90;;;11.60;56.30;;;;;;4998029;28;20455;-74
2021/04/02 10:52:58;;;;;;;2.63;1.15;;;11.70;56.00;;;;;;4997414;28;20034;-75
2021/04/02 10:55:24;;;;;;;2.55;0.77;;;11.80;56.00;;;;;;4997633;28;20062;-75
2021/04/02 10:57:50;;;;;;;3.60;0.80;;;11.90;55.90;;;;;;4997312;28;20053;-76
2021/04/02 11:00:18;;;;;;;1.10;0.80;;;11.90;55.60;;;;;;4997909;28;20371;-75
2021/04/02 11:02:44;;;;;;;2.15;0.60;;;12.00;55.50;;;;;;4997374;28;20107;-75
2021/04/02 11:05:10;;;;;;;1.50;0.73;;;11.90;55.20;;;;;;4997664;28;20053;-75
2021/04/02 11:07:36;;;;;;;2.13;0.80;;;11.80;55.40;;;;;;4996840;28;20085;-75
2021/04/02 11:10:05;;;;;;;1.52;0.77;;;11.80;55.40;;;;;;4994167;28;20478;-75
2021/04/02 11:12:31;;;;;;;3.92;1.67;;;11.90;55.30;;;;;;4993958;28;20030;-75
2021/04/02 11:14:57;;;;;;;3.38;0.68;;;12.10;55.20;;;;;;4993713;28;20589;-75
2021/04/02 11:17:24;;;;;;;1.48;0.68;;;12.30;54.80;;;;;;4994228;28;20046;-74
2021/04/02 11:19:51;;;;;;;1.13;0.80;;;12.40;54.50;;;;;;4993477;28;20027;-75
2021/04/02 11:22:17;;;;;;;2.45;0.90;;;12.50;54.10;;;;;;4994019;28;20061;-75
2021/04/02 11:24:42;;;;;;;1.58;0.70;;;12.40;54.10;;;;;;4976364;28;20018;-76
2021/04/02 11:27:08;;;;;;;1.27;0.90;;;12.40;54.00;;;;;;4993827;28;20026;-75
2021/04/02 11:29:35;;;;;;;3.00;1.00;;;12.30;53.80;;;;;;4994249;28;20019;-75
2021/04/02 11:32:02;;;;;;;5.97;1.00;;;12.30;54.10;;;;;;4994051;28;20054;-75
2021/04/02 11:34:30;;;;;;;3.75;0.75;;;12.40;54.10;;;;;;4993669;28;20037;-75
2021/04/02 11:36:57;;;;;;;0.70;0.70;;;12.50;53.80;;;;;;4993415;28;20029;-76
2021/04/02 11:39:23;;;;;;;1.63;0.75;;;12.60;53.50;;;;;;4993870;28;20105;-76
2021/04/02 11:41:48;;;;;;;2.70;1.00;;;12.60;52.90;;;;;;4993285;28;20030;-75
2021/04/02 11:44:14;;;;;;;2.20;1.45;;;12.50;53.00;;;;;;4993964;28;20026;-74
2021/04/02 11:46:39;;;;;;;1.27;0.82;;;12.60;53.00;;;;;;4993366;28;20105;-75
2021/04/02 11:49:06;;;;;;;3.47;0.95;;;12.60;53.10;;;;;;4993536;28;20062;-75
2021/04/02 11:51:32;;;;;;;2.33;1.05;;;12.60;52.30;;;;;;4993355;28;20026;-75
2021/04/02 11:53:57;;;;;;;3.05;1.02;;;12.50;52.60;;;;;;4975560;28;20033;-75
2021/04/02 11:56:23;;;;;;;1.95;0.93;;;12.50;52.70;;;;;;4976031;28;20112;-75
2021/04/02 11:58:49;;;;;;;1.40;0.70;;;12.60;53.00;;;;;;4975349;28;20116;-75
2021/04/02 12:01:14;;;;;;;4.50;0.95;;;12.60;52.70;;;;;;4993263;28;20119;-75
2021/04/02 12:03:40;;;;;;;2.35;1.02;;;12.60;52.40;;;;;;4992566;28;20026;-75
2021/04/02 12:06:06;;;;;;;1.00;0.70;;;12.90;52.30;;;;;;4993393;28;20029;-74
2021/04/02 12:08:31;;;;;;;3.67;0.85;;;13.20;51.80;;;;;;4993789;28;20034;-75
2021/04/02 12:10:57;;;;;;;2.28;0.93;;;13.30;51.50;;;;;;4993104;28;20440;-75
2021/04/02 12:13:22;;;;;;;1.80;0.88;;;13.20;51.30;;;;;;4994098;28;20126;-75
2021/04/02 12:15:48;;;;;;;1.08;0.80;;;13.10;51.40;;;;;;4992623;28;20029;-75
2021/04/02 12:18:15;;;;;;;2.45;0.82;;;13.00;51.70;;;;;;4993838;28;20022;-75
2021/04/02 12:20:40;;;;;;;1.45;0.85;;;12.90;51.80;;;;;;4992198;28;20022;-74
2021/04/02 12:23:06;;;;;;;5.10;1.00;;;12.80;51.90;;;;;;4975088;28;20100;-74
2021/04/02 12:25:32;;;;;;;1.65;1.05;;;12.70;52.10;;;;;;4993028;28;20383;-75
2021/04/02 12:27:58;;;;;;;1.73;0.98;;;12.60;52.10;;;;;;4992254;28;20076;-75
2021/04/02 12:30:23;;;;;;;0.98;0.90;;;12.50;52.30;;;;;;4993893;28;20455;-75
2021/04/02 12:32:49;;;;;;;1.75;1.00;;;12.50;52.50;;;;;;4992676;28;20026;-74
2021/04/02 12:35:15;;;;;;;6.03;1.35;;;12.40;52.20;;;;;;4993589;28;20462;-75
2021/04/02 12:37:42;;;;;;;2.55;1.02;;;12.20;52.50;;;;;;4992983;28;20058;-74
2021/04/02 12:40:26;;;;;;;2.95;1.23;;;12.20;52.80;;;;;;4992863;28;20033;-74
2021/04/02 12:42:53;;;;;;;1.65;0.80;;;12.20;53.00;;;;;;4974630;28;20394;-74
2021/04/02 12:45:19;;;;;;;4.00;1.30;;;12.20;52.90;;;;;;4992570;28;20101;-75
2021/04/02 12:47:45;;;;;;;6.00;1.05;;;12.30;52.80;;;;;;4992066;28;20066;-75
2021/04/02 12:50:20;;;;;;;3.42;0.80;;;12.30;52.70;;;;;;4992581;28;20033;-75
2021/04/02 12:52:46;;;;;;;1.45;0.73;;;12.30;52.70;;;;;;4991707;28;20022;-75
2021/04/02 12:55:15;;;;;;;1.95;0.80;;;12.30;52.80;;;;;;4992279;28;20109;-74
2021/04/02 12:57:42;;;;;;;4.57;0.73;;;12.40;53.00;;;;;;4992397;28;20022;-74